IWHRL EINN-EIWT

Flight info

Callsign IWHRL
Flight time N/A
Altitude 5000
Route DIGAN DCT DONEB
Aircraft A139/L-SFG/C

Departure

Time 2026-05-08 15:04
Airport Shannon Airport (EINN)

Arrival

Time N/A
Airport EIWT
Time Latitude Longitude Altitude Speed Heading
2026-05-08 14:58 52.69601 -8.90318 4 ft 0 kts 128°
2026-05-08 15:03 52.69586 -8.90308 33 ft 2 kts 116°
2026-05-08 15:03 52.69579 -8.90280 100 ft 10 kts 88°
2026-05-08 15:04 52.69582 -8.90112 266 ft 28 kts 70°
2026-05-08 15:04 52.69627 -8.89687 580 ft 54 kts 84°
2026-05-08 15:04 52.69725 -8.88922 904 ft 82 kts 75°
2026-05-08 15:04 52.69888 -8.87757 871 ft 131 kts 68°
2026-05-08 15:05 52.69578 -8.86360 1356 ft 131 kts 98°
2026-05-08 15:05 52.68849 -8.85662 1868 ft 109 kts 165°
2026-05-08 15:05 52.68185 -8.85885 2019 ft 97 kts 213°
2026-05-08 15:05 52.67725 -8.86699 1970 ft 101 kts 248°
2026-05-08 15:06 52.67332 -8.87682 2000 ft 104 kts 214°
2026-05-08 15:06 52.66675 -8.87964 2029 ft 97 kts 165°
2026-05-08 15:06 52.66136 -8.87427 2029 ft 88 kts 115°
2026-05-08 15:06 52.66067 -8.86512 2032 ft 80 kts 65°
2026-05-08 15:07 52.66339 -8.85730 2041 ft 78 kts 54°
2026-05-08 15:07 52.66693 -8.85055 2025 ft 79 kts 42°
2026-05-08 15:07 52.67099 -8.84471 2032 ft 77 kts 44°
2026-05-08 15:07 52.67493 -8.83861 2114 ft 78 kts 44°
2026-05-08 15:08 52.67892 -8.83254 2074 ft 77 kts 44°
2026-05-08 15:08 52.68155 -8.82843 2046 ft 77 kts 44°
2026-05-08 15:08 52.68663 -8.82023 2015 ft 78 kts 40°
2026-05-08 15:08 52.69072 -8.81312 2268 ft 103 kts 54°
2026-05-08 15:09 52.69659 -8.80316 2260 ft 136 kts 44°
2026-05-08 15:09 52.70329 -8.79209 2425 ft 137 kts 44°
2026-05-08 15:09 52.71006 -8.78066 2314 ft 139 kts 45°
2026-05-08 15:09 52.71706 -8.76980 2351 ft 141 kts 44°
2026-05-08 15:10 52.72422 -8.75866 2585 ft 140 kts 47°
2026-05-08 15:10 52.73164 -8.74840 2815 ft 141 kts 43°
2026-05-08 15:10 52.73896 -8.73793 2950 ft 138 kts 42°
2026-05-08 15:10 52.74624 -8.72725 2914 ft 140 kts 41°
2026-05-08 15:11 52.75348 -8.71655 2898 ft 140 kts 42°
2026-05-08 15:11 52.76071 -8.70585 2876 ft 140 kts 42°
2026-05-08 15:11 52.76792 -8.69513 2871 ft 139 kts 42°
2026-05-08 15:11 52.77515 -8.68437 2866 ft 140 kts 41°
2026-05-08 15:12 52.78239 -8.67359 2881 ft 139 kts 42°
2026-05-08 15:12 52.78951 -8.66293 2885 ft 140 kts 42°
2026-05-08 15:12 52.79680 -8.65209 2887 ft 140 kts 41°
2026-05-08 15:12 52.80392 -8.64143 2891 ft 139 kts 42°
2026-05-08 15:13 52.81113 -8.63061 2880 ft 139 kts 42°
2026-05-08 15:13 52.81827 -8.61989 2868 ft 140 kts 42°
2026-05-08 15:13 52.82555 -8.60898 2882 ft 139 kts 41°
2026-05-08 15:13 52.83269 -8.59828 2884 ft 139 kts 42°
2026-05-08 15:14 52.83964 -8.58724 2874 ft 139 kts 53°
2026-05-08 15:14 52.84390 -8.57287 2881 ft 139 kts 63°
2026-05-08 15:14 52.84789 -8.55823 2878 ft 139 kts 64°
2026-05-08 15:14 52.85182 -8.54351 2867 ft 139 kts 64°
2026-05-08 15:15 52.85566 -8.52886 2867 ft 139 kts 64°
2026-05-08 15:15 52.85952 -8.51410 2872 ft 140 kts 64°
2026-05-08 15:15 52.86332 -8.49942 2876 ft 140 kts 64°
2026-05-08 15:15 52.86711 -8.48465 2878 ft 139 kts 64°
2026-05-08 15:16 52.87090 -8.46991 2864 ft 140 kts 64°
2026-05-08 15:16 52.87471 -8.45496 2873 ft 140 kts 64°
2026-05-08 15:16 52.87849 -8.44016 2876 ft 140 kts 64°
2026-05-08 15:16 52.88232 -8.42516 2874 ft 140 kts 64°
2026-05-08 15:17 52.88606 -8.41041 2881 ft 139 kts 65°
2026-05-08 15:17 52.88981 -8.39565 2878 ft 139 kts 65°
2026-05-08 15:17 52.89353 -8.38087 2874 ft 139 kts 64°
2026-05-08 15:17 52.89727 -8.36614 2869 ft 139 kts 64°
2026-05-08 15:18 52.90102 -8.35131 2870 ft 139 kts 64°
2026-05-08 15:18 52.90473 -8.33661 2868 ft 140 kts 65°
2026-05-08 15:18 52.90850 -8.32174 2869 ft 140 kts 65°
2026-05-08 15:18 52.91233 -8.30663 2867 ft 141 kts 65°
2026-05-08 15:19 52.91608 -8.29173 2873 ft 141 kts 65°
2026-05-08 15:19 52.91982 -8.27683 2878 ft 141 kts 65°
2026-05-08 15:19 52.92355 -8.26201 2884 ft 140 kts 64°
2026-05-08 15:19 52.92731 -8.24714 2875 ft 140 kts 65°
2026-05-08 15:20 52.93109 -8.23212 2877 ft 140 kts 65°
2026-05-08 15:20 52.93480 -8.21735 2878 ft 139 kts 65°
2026-05-08 15:20 52.93852 -8.20252 2869 ft 139 kts 65°
2026-05-08 15:20 52.94224 -8.18767 2873 ft 139 kts 65°
2026-05-08 15:21 52.94594 -8.17297 2879 ft 139 kts 65°
2026-05-08 15:21 52.94965 -8.15817 2879 ft 139 kts 65°
2026-05-08 15:21 52.95340 -8.14320 2877 ft 140 kts 65°
2026-05-08 15:21 52.95708 -8.12846 2875 ft 140 kts 65°
2026-05-08 15:22 52.96084 -8.11345 2872 ft 141 kts 65°
2026-05-08 15:22 52.96457 -8.09845 2880 ft 140 kts 65°
2026-05-08 15:22 52.96830 -8.08353 2884 ft 140 kts 64°
2026-05-08 15:22 52.97205 -8.06850 2884 ft 140 kts 64°
2026-05-08 15:23 52.97578 -8.05357 2885 ft 140 kts 64°
2026-05-08 15:23 52.97950 -8.03863 2877 ft 140 kts 64°
2026-05-08 15:23 52.98317 -8.02389 2881 ft 139 kts 65°
2026-05-08 15:23 52.98689 -8.00902 2873 ft 140 kts 65°
2026-05-08 15:24 52.99063 -7.99396 2871 ft 140 kts 65°
2026-05-08 15:24 52.99431 -7.97912 2879 ft 140 kts 65°
2026-05-08 15:24 52.99800 -7.96425 2873 ft 140 kts 65°
2026-05-08 15:24 53.00174 -7.94918 2871 ft 141 kts 65°
2026-05-08 15:25 53.00545 -7.93421 2870 ft 141 kts 65°
2026-05-08 15:25 53.00922 -7.91904 2872 ft 141 kts 65°
2026-05-08 15:25 53.01292 -7.90404 2882 ft 141 kts 65°
2026-05-08 15:25 53.01666 -7.88897 2881 ft 141 kts 64°
2026-05-08 15:26 53.02035 -7.87406 2880 ft 141 kts 64°
2026-05-08 15:26 53.02408 -7.85899 2882 ft 140 kts 64°
2026-05-08 15:26 53.02779 -7.84394 2877 ft 140 kts 64°
2026-05-08 15:26 53.03146 -7.82907 2874 ft 141 kts 65°
2026-05-08 15:27 53.03519 -7.81398 2876 ft 141 kts 64°
2026-05-08 15:27 53.03890 -7.79893 2879 ft 141 kts 65°
2026-05-08 15:27 53.04260 -7.78390 2875 ft 141 kts 65°
2026-05-08 15:27 53.04629 -7.76889 2875 ft 141 kts 64°
2026-05-08 15:28 53.05000 -7.75384 2871 ft 141 kts 65°
2026-05-08 15:28 53.05370 -7.73876 2885 ft 140 kts 65°
2026-05-08 15:28 53.05741 -7.72364 2869 ft 141 kts 65°
2026-05-08 15:28 53.06109 -7.70866 2870 ft 140 kts 65°
2026-05-08 15:29 53.06483 -7.69343 2866 ft 141 kts 65°
2026-05-08 15:29 53.06854 -7.67828 2872 ft 141 kts 65°
2026-05-08 15:29 53.07224 -7.66318 2887 ft 141 kts 64°
2026-05-08 15:29 53.07593 -7.64809 2884 ft 141 kts 65°
2026-05-08 15:30 53.07961 -7.63313 2890 ft 141 kts 65°
2026-05-08 15:30 53.08332 -7.61792 2874 ft 142 kts 66°
2026-05-08 15:30 53.08704 -7.60269 2873 ft 142 kts 65°
2026-05-08 15:30 53.09074 -7.58747 2863 ft 141 kts 65°
2026-05-08 15:31 53.09444 -7.57235 2870 ft 142 kts 65°
2026-05-08 15:31 53.09816 -7.55710 2885 ft 142 kts 65°
2026-05-08 15:31 53.10185 -7.54188 2890 ft 142 kts 65°
2026-05-08 15:31 53.10558 -7.52649 2885 ft 142 kts 65°
2026-05-08 15:32 53.10924 -7.51137 2867 ft 142 kts 65°
2026-05-08 15:32 53.11292 -7.49609 2871 ft 142 kts 65°
2026-05-08 15:32 53.11661 -7.48087 2868 ft 143 kts 65°
2026-05-08 15:32 53.12031 -7.46559 2872 ft 143 kts 65°
2026-05-08 15:33 53.12400 -7.45031 2872 ft 142 kts 65°
2026-05-08 15:33 53.12772 -7.43499 2867 ft 142 kts 65°
2026-05-08 15:33 53.13139 -7.41977 2866 ft 143 kts 65°
2026-05-08 15:33 53.13514 -7.40427 2862 ft 143 kts 65°
2026-05-08 15:34 53.13884 -7.38895 2869 ft 143 kts 65°
2026-05-08 15:34 53.14254 -7.37360 2874 ft 142 kts 65°
2026-05-08 15:34 53.14623 -7.35836 2874 ft 142 kts 65°
2026-05-08 15:34 53.14991 -7.34312 2870 ft 142 kts 65°
2026-05-08 15:35 53.15362 -7.32780 2866 ft 143 kts 66°
2026-05-08 15:35 53.15733 -7.31245 2871 ft 143 kts 66°
2026-05-08 15:35 53.16103 -7.29711 2878 ft 142 kts 66°
2026-05-08 15:35 53.16475 -7.28172 2867 ft 143 kts 66°
2026-05-08 15:36 53.16841 -7.26648 2876 ft 142 kts 66°
2026-05-08 15:36 53.17084 -7.25636 2878 ft 142 kts 66°
2026-05-08 15:36 53.17576 -7.23591 2867 ft 143 kts 66°
2026-05-08 15:36 53.17946 -7.22049 2867 ft 143 kts 66°
2026-05-08 15:37 53.18315 -7.20508 2875 ft 143 kts 66°
2026-05-08 15:37 53.18686 -7.18961 2871 ft 144 kts 66°
2026-05-08 15:37 53.19054 -7.17424 2875 ft 143 kts 66°
2026-05-08 15:37 53.19427 -7.15872 2868 ft 144 kts 66°
2026-05-08 15:38 53.19798 -7.14320 2869 ft 144 kts 66°
2026-05-08 15:38 53.20168 -7.12773 2877 ft 144 kts 66°
2026-05-08 15:38 53.20538 -7.11222 2880 ft 143 kts 66°
2026-05-08 15:38 53.20905 -7.09686 2875 ft 143 kts 66°
2026-05-08 15:39 53.21277 -7.08129 2869 ft 143 kts 67°
2026-05-08 15:39 53.21642 -7.06593 2872 ft 143 kts 66°
2026-05-08 15:39 53.22010 -7.05052 2865 ft 144 kts 66°
2026-05-08 15:39 53.22377 -7.03500 2869 ft 144 kts 66°
2026-05-08 15:40 53.22754 -7.01918 2868 ft 144 kts 66°
2026-05-08 15:40 53.23125 -7.00355 2871 ft 144 kts 66°
2026-05-08 15:40 53.23493 -6.98807 2872 ft 144 kts 66°
2026-05-08 15:40 53.23862 -6.97255 2870 ft 144 kts 66°
2026-05-08 15:41 53.24227 -6.95715 2871 ft 144 kts 66°
2026-05-08 15:41 53.24600 -6.94142 2871 ft 144 kts 66°
2026-05-08 15:41 53.24966 -6.92597 2879 ft 144 kts 67°
2026-05-08 15:41 53.25334 -6.91045 2879 ft 144 kts 66°
2026-05-08 15:42 53.25699 -6.89493 2856 ft 143 kts 65°
2026-05-08 15:42 53.26069 -6.87936 2716 ft 143 kts 64°
2026-05-08 15:42 53.26441 -6.86392 2532 ft 143 kts 64°
2026-05-08 15:42 53.26819 -6.84812 2341 ft 143 kts 64°
2026-05-08 15:43 53.27193 -6.83241 2158 ft 143 kts 64°
2026-05-08 15:43 53.27557 -6.81712 1977 ft 142 kts 64°
2026-05-08 15:43 53.27919 -6.80178 1788 ft 142 kts 64°
2026-05-08 15:43 53.28280 -6.78653 1602 ft 141 kts 64°
2026-05-08 15:44 53.28641 -6.77134 1412 ft 140 kts 65°
2026-05-08 15:44 53.29003 -6.75613 1286 ft 141 kts 68°
2026-05-08 15:44 53.29351 -6.74089 1284 ft 141 kts 68°
2026-05-08 15:44 53.29702 -6.72566 1308 ft 140 kts 68°
2026-05-08 15:45 53.30054 -6.71039 1321 ft 140 kts 68°
2026-05-08 15:45 53.30408 -6.69516 1330 ft 140 kts 68°
2026-05-08 15:45 53.30759 -6.68003 1326 ft 140 kts 67°
2026-05-08 15:45 53.31117 -6.66488 1328 ft 141 kts 68°
2026-05-08 15:46 53.31469 -6.64950 1325 ft 141 kts 67°
2026-05-08 15:46 53.31831 -6.63413 1329 ft 141 kts 68°
2026-05-08 15:46 53.32188 -6.61882 1336 ft 141 kts 68°
2026-05-08 15:46 53.32545 -6.60347 1338 ft 141 kts 68°
2026-05-08 15:47 53.32899 -6.58827 1338 ft 141 kts 68°
2026-05-08 15:47 53.33257 -6.57286 1333 ft 141 kts 68°
2026-05-08 15:47 53.33606 -6.55771 1328 ft 141 kts 67°
2026-05-08 15:47 53.33971 -6.54230 1333 ft 141 kts 68°
2026-05-08 15:48 53.34261 -6.51695 1427 ft 135 kts 108°
2026-05-08 15:48 53.33635 -6.50478 1383 ft 128 kts 126°
2026-05-08 15:48 53.33160 -6.49279 1429 ft 125 kts 104°
2026-05-08 15:49 53.33505 -6.48555 1845 ft 94 kts
2026-05-08 15:49 53.34156 -6.48672 1550 ft 88 kts 347°
2026-05-08 15:49 53.34683 -6.48273 1070 ft 83 kts 51°
2026-05-08 15:49 53.34572 -6.47687 832 ft 70 kts 146°
2026-05-08 15:50 53.34351 -6.48300 571 ft 58 kts 315°
2026-05-08 15:50 53.34585 -6.48693 606 ft 48 kts 342°
2026-05-08 15:50 53.34943 -6.48826 470 ft 55 kts 353°
2026-05-08 15:50 53.35149 -6.48881 368 ft 38 kts 343°
2026-05-08 15:51 53.35371 -6.48911 214 ft 13 kts 355°
2026-05-08 15:51 53.35434 -6.48930 174 ft 6 kts 341°
2026-05-08 15:51 53.35460 -6.48937 164 ft 1 kts 323°
2026-05-08 15:51 53.35475 -6.48945 158 ft 0 kts 324°